sensor_id;sensor_type;location;lat;lon;timestamp;pressure;altitude;pressure_sealevel;temperature;humidity
63500;BME280;49654;51.142;14.924;2024-01-06T00:00:04;98044.53;;;6.92;72.06
63500;BME280;49654;51.142;14.924;2024-01-06T00:02:32;98044.69;;;7.06;71.94
63500;BME280;49654;51.142;14.924;2024-01-06T00:04:59;98014.19;;;6.80;71.68
63500;BME280;49654;51.142;14.924;2024-01-06T00:07:26;97989.56;;;6.62;71.98
63500;BME280;49654;51.142;14.924;2024-01-06T00:09:53;98055.22;;;7.04;71.94
63500;BME280;49654;51.142;14.924;2024-01-06T00:12:20;98054.84;;;6.92;72.06
63500;BME280;49654;51.142;14.924;2024-01-06T00:14:48;98007.72;;;6.69;72.02
63500;BME280;49654;51.142;14.924;2024-01-06T00:17:16;98020.59;;;6.84;72.02
63500;BME280;49654;51.142;14.924;2024-01-06T00:19:43;98045.50;;;7.06;71.97
63500;BME280;49654;51.142;14.924;2024-01-06T00:22:10;98045.69;;;7.05;71.68
63500;BME280;49654;51.142;14.924;2024-01-06T00:24:37;98052.81;;;7.17;71.79
63500;BME280;49654;51.142;14.924;2024-01-06T00:27:04;98047.38;;;6.97;72.29
63500;BME280;49654;51.142;14.924;2024-01-06T00:29:31;98030.56;;;6.87;72.08
63500;BME280;49654;51.142;14.924;2024-01-06T00:31:59;97986.16;;;6.62;72.19
63500;BME280;49654;51.142;14.924;2024-01-06T00:34:26;98049.41;;;7.02;71.91
63500;BME280;49654;51.142;14.924;2024-01-06T00:36:53;98064.56;;;7.05;72.12
63500;BME280;49654;51.142;14.924;2024-01-06T00:39:20;98056.28;;;7.10;71.75
63500;BME280;49654;51.142;14.924;2024-01-06T00:41:47;97923.53;;;5.94;72.07
63500;BME280;49654;51.142;14.924;2024-01-06T00:44:14;97966.78;;;6.36;72.05
63500;BME280;49654;51.142;14.924;2024-01-06T00:46:41;98055.66;;;6.93;72.26
63500;BME280;49654;51.142;14.924;2024-01-06T00:49:09;98061.81;;;6.92;72.50
63500;BME280;49654;51.142;14.924;2024-01-06T00:51:36;98022.00;;;6.71;72.12
63500;BME280;49654;51.142;14.924;2024-01-06T00:54:03;98059.50;;;7.12;71.88
63500;BME280;49654;51.142;14.924;2024-01-06T00:56:30;98069.53;;;6.92;72.26
63500;BME280;49654;51.142;14.924;2024-01-06T00:58:57;98068.94;;;6.90;72.69
63500;BME280;49654;51.142;14.924;2024-01-06T01:01:23;98049.50;;;6.79;71.98
63500;BME280;49654;51.142;14.924;2024-01-06T01:03:50;98072.38;;;6.97;72.35
63500;BME280;49654;51.142;14.924;2024-01-06T01:06:19;98077.19;;;7.00;72.31
63500;BME280;49654;51.142;14.924;2024-01-06T01:08:46;98060.81;;;6.93;71.69
63500;BME280;49654;51.142;14.924;2024-01-06T01:11:13;98058.88;;;6.95;71.94
63500;BME280;49654;51.142;14.924;2024-01-06T01:13:39;97971.06;;;6.44;71.50
63500;BME280;49654;51.142;14.924;2024-01-06T01:16:06;98069.38;;;7.08;71.51
63500;BME280;49654;51.142;14.924;2024-01-06T01:18:33;98086.78;;;7.06;71.69
63500;BME280;49654;51.142;14.924;2024-01-06T01:21:00;98037.34;;;6.73;71.80
63500;BME280;49654;51.142;14.924;2024-01-06T01:23:29;98088.84;;;6.96;71.89
63500;BME280;49654;51.142;14.924;2024-01-06T01:25:56;98085.13;;;6.98;71.96
63500;BME280;49654;51.142;14.924;2024-01-06T01:28:23;98096.50;;;7.04;71.84
63500;BME280;49654;51.142;14.924;2024-01-06T01:30:50;98065.38;;;6.91;71.16
63500;BME280;49654;51.142;14.924;2024-01-06T01:33:17;98002.63;;;6.61;71.10
63500;BME280;49654;51.142;14.924;2024-01-06T01:35:44;97966.78;;;6.36;71.03
63500;BME280;49654;51.142;14.924;2024-01-06T01:38:11;97952.25;;;6.20;71.21
63500;BME280;49654;51.142;14.924;2024-01-06T01:40:39;98085.47;;;7.10;71.20
63500;BME280;49654;51.142;14.924;2024-01-06T01:43:15;98041.59;;;6.81;71.04
63500;BME280;49654;51.142;14.924;2024-01-06T01:45:42;98075.44;;;7.15;70.90
63500;BME280;49654;51.142;14.924;2024-01-06T01:48:09;98078.81;;;7.16;70.76
63500;BME280;49654;51.142;14.924;2024-01-06T01:50:36;98081.28;;;7.09;70.93
63500;BME280;49654;51.142;14.924;2024-01-06T01:53:04;98059.22;;;6.92;70.79
63500;BME280;49654;51.142;14.924;2024-01-06T01:55:31;98075.44;;;7.15;70.94
63500;BME280;49654;51.142;14.924;2024-01-06T01:57:59;98078.63;;;7.02;71.04
63500;BME280;49654;51.142;14.924;2024-01-06T02:00:27;98003.78;;;6.58;71.03
63500;BME280;49654;51.142;14.924;2024-01-06T02:02:54;98047.91;;;6.93;71.04
63500;BME280;49654;51.142;14.924;2024-01-06T02:05:21;98042.13;;;6.91;71.03
63500;BME280;49654;51.142;14.924;2024-01-06T02:07:48;98077.19;;;7.00;71.50
63500;BME280;49654;51.142;14.924;2024-01-06T02:10:16;98074.97;;;7.12;71.42
63500;BME280;49654;51.142;14.924;2024-01-06T02:12:43;98039.53;;;7.06;70.80
63500;BME280;49654;51.142;14.924;2024-01-06T02:15:12;98044.34;;;6.79;71.46
63500;BME280;49654;51.142;14.924;2024-01-06T02:17:39;97978.59;;;6.31;71.92
63500;BME280;49654;51.142;14.924;2024-01-06T02:20:07;98073.09;;;6.91;72.13
63500;BME280;49654;51.142;14.924;2024-01-06T02:22:36;98074.81;;;6.98;71.82
63500;BME280;49654;51.142;14.924;2024-01-06T02:25:05;98063.94;;;6.88;71.88
63500;BME280;49654;51.142;14.924;2024-01-06T02:27:38;97996.56;;;6.53;72.01
63500;BME280;49654;51.142;14.924;2024-01-06T02:30:06;98073.72;;;6.93;71.61
63500;BME280;49654;51.142;14.924;2024-01-06T02:32:33;98068.28;;;6.88;72.16
63500;BME280;49654;51.142;14.924;2024-01-06T02:35:00;98075.16;;;6.95;72.25
63500;BME280;49654;51.142;14.924;2024-01-06T02:37:27;98044.50;;;6.63;72.53
63500;BME280;49654;51.142;14.924;2024-01-06T02:39:55;98023.63;;;6.58;72.33
63500;BME280;49654;51.142;14.924;2024-01-06T02:42:22;98015.06;;;6.57;71.95
63500;BME280;49654;51.142;14.924;2024-01-06T02:44:49;98059.84;;;6.79;72.06
63500;BME280;49654;51.142;14.924;2024-01-06T02:47:16;97987.66;;;6.26;72.56
63500;BME280;49654;51.142;14.924;2024-01-06T02:49:43;97996.72;;;6.22;72.88
63500;BME280;49654;51.142;14.924;2024-01-06T02:52:10;98065.41;;;6.53;73.30
63500;BME280;49654;51.142;14.924;2024-01-06T02:54:37;98072.16;;;6.39;74.01
63500;BME280;49654;51.142;14.924;2024-01-06T02:57:06;98058.94;;;6.57;73.86
63500;BME280;49654;51.142;14.924;2024-01-06T02:59:32;98070.16;;;6.64;73.42
63500;BME280;49654;51.142;14.924;2024-01-06T03:02:01;98069.06;;;6.59;73.61
63500;BME280;49654;51.142;14.924;2024-01-06T03:04:28;98065.81;;;6.42;74.41
63500;BME280;49654;51.142;14.924;2024-01-06T03:06:55;98063.81;;;6.52;73.79
63500;BME280;49654;51.142;14.924;2024-01-06T03:09:22;98034.59;;;6.37;74.10
63500;BME280;49654;51.142;14.924;2024-01-06T03:11:49;98015.56;;;6.38;73.30
63500;BME280;49654;51.142;14.924;2024-01-06T03:14:17;98079.56;;;6.57;73.73
63500;BME280;49654;51.142;14.924;2024-01-06T03:16:44;98079.81;;;6.62;73.81
63500;BME280;49654;51.142;14.924;2024-01-06T03:19:11;98080.47;;;6.64;73.55
63500;BME280;49654;51.142;14.924;2024-01-06T03:21:38;98081.06;;;6.51;73.86
63500;BME280;49654;51.142;14.924;2024-01-06T03:24:08;98087.09;;;6.44;74.44
63500;BME280;49654;51.142;14.924;2024-01-06T03:26:35;97958.72;;;5.56;74.68
63500;BME280;49654;51.142;14.924;2024-01-06T03:29:02;98011.53;;;6.06;74.00
63500;BME280;49654;51.142;14.924;2024-01-06T03:31:30;98014.03;;;6.14;73.50
63500;BME280;49654;51.142;14.924;2024-01-06T03:33:57;98067.91;;;6.61;73.01
63500;BME280;49654;51.142;14.924;2024-01-06T03:36:24;98088.22;;;6.64;73.21
63500;BME280;49654;51.142;14.924;2024-01-06T03:38:51;98085.13;;;6.46;73.56
63500;BME280;49654;51.142;14.924;2024-01-06T03:41:18;98095.34;;;6.39;74.15
63500;BME280;49654;51.142;14.924;2024-01-06T03:43:45;98101.19;;;6.56;73.75
63500;BME280;49654;51.142;14.924;2024-01-06T03:46:12;98066.72;;;6.49;73.35
63500;BME280;49654;51.142;14.924;2024-01-06T03:48:40;98093.91;;;6.60;73.42
63500;BME280;49654;51.142;14.924;2024-01-06T03:51:07;98098.31;;;6.51;73.93
63500;BME280;49654;51.142;14.924;2024-01-06T03:53:36;98052.78;;;6.20;73.76
63500;BME280;49654;51.142;14.924;2024-01-06T03:56:04;98096.75;;;6.65;73.39
63500;BME280;49654;51.142;14.924;2024-01-06T03:58:31;98031.28;;;6.13;73.26
63500;BME280;49654;51.142;14.924;2024-01-06T04:00:58;98066.41;;;6.52;73.00
63500;BME280;49654;51.142;14.924;2024-01-06T04:03:25;98075.44;;;6.10;74.28
63500;BME280;49654;51.142;14.924;2024-01-06T04:05:53;98016.41;;;5.69;74.80
63500;BME280;49654;51.142;14.924;2024-01-06T04:08:20;98075.25;;;6.35;73.97
63500;BME280;49654;51.142;14.924;2024-01-06T04:10:47;98037.03;;;6.15;73.41
63500;BME280;49654;51.142;14.924;2024-01-06T04:13:15;98107.38;;;6.47;74.04
63500;BME280;49654;51.142;14.924;2024-01-06T04:15:42;98116.06;;;6.46;73.77
63500;BME280;49654;51.142;14.924;2024-01-06T04:18:09;98118.03;;;6.44;74.26
63500;BME280;49654;51.142;14.924;2024-01-06T04:20:36;98107.72;;;6.44;73.86
63500;BME280;49654;51.142;14.924;2024-01-06T04:23:04;98086.81;;;6.16;74.16
63500;BME280;49654;51.142;14.924;2024-01-06T04:25:31;98108.50;;;6.30;74.55
63500;BME280;49654;51.142;14.924;2024-01-06T04:27:58;98102.91;;;6.41;74.27
63500;BME280;49654;51.142;14.924;2024-01-06T04:30:25;98084.56;;;6.36;74.29
63500;BME280;49654;51.142;14.924;2024-01-06T04:32:52;98104.28;;;6.51;74.13
63500;BME280;49654;51.142;14.924;2024-01-06T04:35:20;98101.53;;;6.68;74.17
63500;BME280;49654;51.142;14.924;2024-01-06T04:37:47;98114.84;;;6.94;73.60
63500;BME280;49654;51.142;14.924;2024-01-06T04:40:15;98085.75;;;6.86;73.37
63500;BME280;49654;51.142;14.924;2024-01-06T04:42:42;98108.09;;;7.08;73.27
63500;BME280;49654;51.142;14.924;2024-01-06T04:45:09;98006.88;;;6.39;73.28
63500;BME280;49654;51.142;14.924;2024-01-06T04:47:36;98112.47;;;7.08;73.48
63500;BME280;49654;51.142;14.924;2024-01-06T04:50:04;98123.13;;;7.19;73.43
63500;BME280;49654;51.142;14.924;2024-01-06T04:52:31;98118.34;;;7.16;73.38
63500;BME280;49654;51.142;14.924;2024-01-06T04:54:58;98063.56;;;6.76;73.43
63500;BME280;49654;51.142;14.924;2024-01-06T04:57:26;98053.13;;;6.55;73.59
63500;BME280;49654;51.142;14.924;2024-01-06T04:59:53;98119.47;;;7.14;73.85
63500;BME280;49654;51.142;14.924;2024-01-06T05:02:20;98121.25;;;7.13;73.64
63500;BME280;49654;51.142;14.924;2024-01-06T05:04:47;98115.72;;;7.01;74.00
63500;BME280;49654;51.142;14.924;2024-01-06T05:07:14;98119.41;;;7.07;74.23
63500;BME280;49654;51.142;14.924;2024-01-06T05:09:41;98116.81;;;7.07;73.57
63500;BME280;49654;51.142;14.924;2024-01-06T05:12:08;98108.44;;;7.05;73.86
63500;BME280;49654;51.142;14.924;2024-01-06T05:14:36;98111.19;;;6.89;73.91
63500;BME280;49654;51.142;14.924;2024-01-06T05:17:03;97974.94;;;5.87;74.08
63500;BME280;49654;51.142;14.924;2024-01-06T05:19:30;98057.75;;;6.45;74.31
63500;BME280;49654;51.142;14.924;2024-01-06T05:21:57;98116.75;;;6.63;74.74
63500;BME280;49654;51.142;14.924;2024-01-06T05:24:24;98115.91;;;6.47;74.76
63500;BME280;49654;51.142;14.924;2024-01-06T05:26:51;98116.00;;;6.54;75.26
63500;BME280;49654;51.142;14.924;2024-01-06T05:29:18;98116.50;;;6.72;74.85
63500;BME280;49654;51.142;14.924;2024-01-06T05:31:46;98125.00;;;6.58;75.03
63500;BME280;49654;51.142;14.924;2024-01-06T05:34:14;98128.91;;;6.54;75.29
63500;BME280;49654;51.142;14.924;2024-01-06T05:36:41;98125.50;;;6.39;75.41
63500;BME280;49654;51.142;14.924;2024-01-06T05:39:08;98137.13;;;6.35;76.01
63500;BME280;49654;51.142;14.924;2024-01-06T05:41:39;98143.31;;;6.25;76.18
63500;BME280;49654;51.142;14.924;2024-01-06T05:44:06;98148.38;;;6.34;76.51
63500;BME280;49654;51.142;14.924;2024-01-06T05:46:34;98158.88;;;6.32;76.59
63500;BME280;49654;51.142;14.924;2024-01-06T05:49:02;98150.34;;;6.32;76.30
63500;BME280;49654;51.142;14.924;2024-01-06T05:51:30;98162.97;;;6.26;76.36
63500;BME280;49654;51.142;14.924;2024-01-06T05:53:57;98170.38;;;6.30;76.67
63500;BME280;49654;51.142;14.924;2024-01-06T05:56:24;98164.91;;;6.47;76.64
63500;BME280;49654;51.142;14.924;2024-01-06T05:58:52;98169.38;;;6.53;76.24
63500;BME280;49654;51.142;14.924;2024-01-06T06:01:19;98176.66;;;6.50;76.14
63500;BME280;49654;51.142;14.924;2024-01-06T06:03:46;98174.63;;;6.37;76.45
63500;BME280;49654;51.142;14.924;2024-01-06T06:06:14;98169.44;;;6.45;76.46
63500;BME280;49654;51.142;14.924;2024-01-06T06:08:42;98120.00;;;6.19;76.25
63500;BME280;49654;51.142;14.924;2024-01-06T06:11:09;98062.84;;;5.92;75.61
63500;BME280;49654;51.142;14.924;2024-01-06T06:13:38;98107.44;;;6.16;75.63
63500;BME280;49654;51.142;14.924;2024-01-06T06:16:06;98147.44;;;6.35;75.98
63500;BME280;49654;51.142;14.924;2024-01-06T06:18:36;98123.09;;;6.14;75.73
63500;BME280;49654;51.142;14.924;2024-01-06T06:21:04;98203.78;;;6.69;76.03
63500;BME280;49654;51.142;14.924;2024-01-06T06:23:32;98192.53;;;6.62;75.80
63500;BME280;49654;51.142;14.924;2024-01-06T06:26:04;98153.31;;;6.20;75.64
63500;BME280;49654;51.142;14.924;2024-01-06T06:28:31;98218.72;;;6.50;76.65
63500;BME280;49654;51.142;14.924;2024-01-06T06:30:58;98153.53;;;6.11;77.02
63500;BME280;49654;51.142;14.924;2024-01-06T06:33:26;98218.31;;;6.39;77.04
63500;BME280;49654;51.142;14.924;2024-01-06T06:35:53;98157.19;;;5.93;76.76
63500;BME280;49654;51.142;14.924;2024-01-06T06:38:20;98225.81;;;6.25;77.25
63500;BME280;49654;51.142;14.924;2024-01-06T06:40:48;98229.84;;;6.20;77.39
63500;BME280;49654;51.142;14.924;2024-01-06T06:43:15;98223.16;;;6.34;77.28
63500;BME280;49654;51.142;14.924;2024-01-06T06:45:42;98234.00;;;6.29;77.08
63500;BME280;49654;51.142;14.924;2024-01-06T06:48:09;98228.22;;;6.27;77.12
63500;BME280;49654;51.142;14.924;2024-01-06T06:50:36;98245.38;;;6.43;77.06
63500;BME280;49654;51.142;14.924;2024-01-06T06:53:03;98249.72;;;6.42;76.79
63500;BME280;49654;51.142;14.924;2024-01-06T06:55:30;98235.50;;;6.15;76.90
63500;BME280;49654;51.142;14.924;2024-01-06T06:57:58;98264.97;;;6.21;77.57
63500;BME280;49654;51.142;14.924;2024-01-06T07:00:25;98257.59;;;6.18;77.88
63500;BME280;49654;51.142;14.924;2024-01-06T07:02:52;98267.09;;;6.17;77.67
63500;BME280;49654;51.142;14.924;2024-01-06T07:05:19;98153.84;;;5.37;77.64
63500;BME280;49654;51.142;14.924;2024-01-06T07:07:46;98199.94;;;5.71;77.33
63500;BME280;49654;51.142;14.924;2024-01-06T07:10:13;98255.25;;;6.00;77.63
63500;BME280;49654;51.142;14.924;2024-01-06T07:12:40;98249.94;;;5.93;77.50
63500;BME280;49654;51.142;14.924;2024-01-06T07:15:09;98166.03;;;5.51;76.63
63500;BME280;49654;51.142;14.924;2024-01-06T07:17:37;98286.94;;;6.09;76.76
63500;BME280;49654;51.142;14.924;2024-01-06T07:20:06;98283.38;;;6.18;76.82
63500;BME280;49654;51.142;14.924;2024-01-06T07:22:33;98166.72;;;5.37;76.85
63500;BME280;49654;51.142;14.924;2024-01-06T07:25:01;98287.56;;;6.11;76.84
63500;BME280;49654;51.142;14.924;2024-01-06T07:27:28;98266.91;;;5.63;77.02
63500;BME280;49654;51.142;14.924;2024-01-06T07:29:55;98260.28;;;5.69;77.79
63500;BME280;49654;51.142;14.924;2024-01-06T07:32:23;98298.72;;;5.95;77.41
63500;BME280;49654;51.142;14.924;2024-01-06T07:34:51;98176.28;;;5.04;77.35
63500;BME280;49654;51.142;14.924;2024-01-06T07:37:17;98296.00;;;5.88;76.74
63500;BME280;49654;51.142;14.924;2024-01-06T07:39:44;98211.63;;;5.26;77.26
63500;BME280;49654;51.142;14.924;2024-01-06T07:42:11;98312.88;;;5.91;77.04
63500;BME280;49654;51.142;14.924;2024-01-06T07:44:38;98285.78;;;5.47;76.60
63500;BME280;49654;51.142;14.924;2024-01-06T07:47:05;98328.06;;;5.69;77.40
63500;BME280;49654;51.142;14.924;2024-01-06T07:49:34;98320.00;;;5.81;77.24
63500;BME280;49654;51.142;14.924;2024-01-06T07:52:00;98330.28;;;5.89;77.08
63500;BME280;49654;51.142;14.924;2024-01-06T07:54:28;98307.50;;;5.61;77.14
63500;BME280;49654;51.142;14.924;2024-01-06T07:56:55;98339.81;;;5.72;77.37
63500;BME280;49654;51.142;14.924;2024-01-06T07:59:22;98336.75;;;5.76;77.36
63500;BME280;49654;51.142;14.924;2024-01-06T08:01:49;98341.91;;;5.85;77.46
63500;BME280;49654;51.142;14.924;2024-01-06T08:04:16;98332.09;;;5.72;77.08
63500;BME280;49654;51.142;14.924;2024-01-06T08:06:44;98349.31;;;5.88;77.10
63500;BME280;49654;51.142;14.924;2024-01-06T08:09:11;98354.47;;;5.88;76.86
63500;BME280;49654;51.142;14.924;2024-01-06T08:11:38;98346.75;;;5.80;77.19
63500;BME280;49654;51.142;14.924;2024-01-06T08:14:05;98292.06;;;5.53;76.65
63500;BME280;49654;51.142;14.924;2024-01-06T08:16:32;98254.09;;;5.31;76.36
63500;BME280;49654;51.142;14.924;2024-01-06T08:18:59;98298.31;;;5.50;76.73
63500;BME280;49654;51.142;14.924;2024-01-06T08:21:26;98367.66;;;6.01;76.21
63500;BME280;49654;51.142;14.924;2024-01-06T08:23:55;98311.81;;;5.61;76.54
63500;BME280;49654;51.142;14.924;2024-01-06T08:26:22;98368.16;;;6.05;76.47
63500;BME280;49654;51.142;14.924;2024-01-06T08:28:49;98363.81;;;5.81;75.86
63500;BME280;49654;51.142;14.924;2024-01-06T08:31:16;98337.91;;;5.74;76.93
63500;BME280;49654;51.142;14.924;2024-01-06T08:33:43;98256.19;;;5.35;76.68
63500;BME280;49654;51.142;14.924;2024-01-06T08:36:11;98384.03;;;6.24;76.30
63500;BME280;49654;51.142;14.924;2024-01-06T08:38:39;98391.13;;;6.31;75.77
63500;BME280;49654;51.142;14.924;2024-01-06T08:41:14;98310.69;;;5.80;75.70
63500;BME280;49654;51.142;14.924;2024-01-06T08:43:41;98299.41;;;5.81;75.01
63500;BME280;49654;51.142;14.924;2024-01-06T08:46:08;98377.97;;;6.09;75.08
63500;BME280;49654;51.142;14.924;2024-01-06T08:48:35;98397.56;;;6.35;75.35
63500;BME280;49654;51.142;14.924;2024-01-06T08:51:02;98409.94;;;6.39;74.57
63500;BME280;49654;51.142;14.924;2024-01-06T08:53:29;98400.75;;;6.37;74.87
63500;BME280;49654;51.142;14.924;2024-01-06T08:55:56;98405.72;;;6.46;74.99
63500;BME280;49654;51.142;14.924;2024-01-06T08:58:24;98337.69;;;6.08;74.66
63500;BME280;49654;51.142;14.924;2024-01-06T09:00:51;98287.69;;;5.70;74.91
63500;BME280;49654;51.142;14.924;2024-01-06T09:03:19;98279.47;;;5.74;74.70
63500;BME280;49654;51.142;14.924;2024-01-06T09:05:51;98368.00;;;6.45;74.27
63500;BME280;49654;51.142;14.924;2024-01-06T09:08:18;98343.97;;;6.14;74.06
63500;BME280;49654;51.142;14.924;2024-01-06T09:10:45;98407.31;;;6.56;74.36
63500;BME280;49654;51.142;14.924;2024-01-06T09:13:12;98408.63;;;6.51;74.42
63500;BME280;49654;51.142;14.924;2024-01-06T09:15:40;98424.38;;;6.65;74.53
63500;BME280;49654;51.142;14.924;2024-01-06T09:18:08;98406.03;;;6.51;74.15
63500;BME280;49654;51.142;14.924;2024-01-06T09:20:36;98427.97;;;6.47;74.14
63500;BME280;49654;51.142;14.924;2024-01-06T09:23:03;98414.81;;;6.26;74.74
63500;BME280;49654;51.142;14.924;2024-01-06T09:25:30;98343.69;;;5.84;75.18
63500;BME280;49654;51.142;14.924;2024-01-06T09:27:57;98431.50;;;6.46;75.02
63500;BME280;49654;51.142;14.924;2024-01-06T09:30:25;98316.81;;;5.78;73.85
63500;BME280;49654;51.142;14.924;2024-01-06T09:32:54;98439.81;;;6.25;74.92
63500;BME280;49654;51.142;14.924;2024-01-06T09:35:21;98439.00;;;6.17;75.41
63500;BME280;49654;51.142;14.924;2024-01-06T09:37:48;98436.09;;;6.20;75.44
63500;BME280;49654;51.142;14.924;2024-01-06T09:40:21;98365.09;;;5.85;75.83
63500;BME280;49654;51.142;14.924;2024-01-06T09:42:49;98323.59;;;5.55;75.66
63500;BME280;49654;51.142;14.924;2024-01-06T09:45:16;98441.53;;;6.41;74.90
63500;BME280;49654;51.142;14.924;2024-01-06T09:47:46;98447.97;;;6.45;74.58
63500;BME280;49654;51.142;14.924;2024-01-06T09:50:17;98451.00;;;6.49;74.62
63500;BME280;49654;51.142;14.924;2024-01-06T09:52:46;98444.41;;;6.46;74.07
63500;BME280;49654;51.142;14.924;2024-01-06T09:55:23;98449.91;;;6.51;74.81
63500;BME280;49654;51.142;14.924;2024-01-06T09:57:51;98448.78;;;6.38;74.95
63500;BME280;49654;51.142;14.924;2024-01-06T10:00:19;98451.34;;;6.46;75.31
63500;BME280;49654;51.142;14.924;2024-01-06T10:02:46;98453.16;;;6.29;74.36
63500;BME280;49654;51.142;14.924;2024-01-06T10:05:16;98375.41;;;5.52;74.57
63500;BME280;49654;51.142;14.924;2024-01-06T10:07:44;98449.16;;;6.10;75.38
63500;BME280;49654;51.142;14.924;2024-01-06T10:10:12;98445.47;;;6.05;74.96
63500;BME280;49654;51.142;14.924;2024-01-06T10:12:39;98415.00;;;5.67;75.83
63500;BME280;49654;51.142;14.924;2024-01-06T10:15:07;98368.16;;;5.56;75.81
63500;BME280;49654;51.142;14.924;2024-01-06T10:17:36;98454.00;;;6.21;76.01
63500;BME280;49654;51.142;14.924;2024-01-06T10:20:06;98450.56;;;6.29;75.59
63500;BME280;49654;51.142;14.924;2024-01-06T10:22:36;98457.34;;;6.30;75.20
63500;BME280;49654;51.142;14.924;2024-01-06T10:25:05;98457.97;;;6.40;74.84
63500;BME280;49654;51.142;14.924;2024-01-06T10:27:33;98345.16;;;5.78;74.82
63500;BME280;49654;51.142;14.924;2024-01-06T10:30:00;98455.69;;;6.45;73.81
63500;BME280;49654;51.142;14.924;2024-01-06T10:32:31;98397.59;;;5.86;73.94
63500;BME280;49654;51.142;14.924;2024-01-06T10:34:58;98364.13;;;5.69;73.80
63500;BME280;49654;51.142;14.924;2024-01-06T10:37:26;98438.03;;;5.69;74.81
63500;BME280;49654;51.142;14.924;2024-01-06T10:40:06;98435.94;;;5.81;75.05
63500;BME280;49654;51.142;14.924;2024-01-06T10:42:33;98459.75;;;5.91;75.54
63500;BME280;49654;51.142;14.924;2024-01-06T10:45:02;98456.28;;;6.00;75.50
63500;BME280;49654;51.142;14.924;2024-01-06T10:47:30;98459.13;;;5.64;75.84
63500;BME280;49654;51.142;14.924;2024-01-06T10:49:59;98443.03;;;5.54;76.39
63500;BME280;49654;51.142;14.924;2024-01-06T10:52:27;98459.16;;;5.97;75.65
63500;BME280;49654;51.142;14.924;2024-01-06T10:54:55;98449.66;;;6.06;75.21
63500;BME280;49654;51.142;14.924;2024-01-06T10:57:23;98421.78;;;5.85;75.02
63500;BME280;49654;51.142;14.924;2024-01-06T10:59:52;98391.50;;;5.46;75.43
63500;BME280;49654;51.142;14.924;2024-01-06T11:02:19;98398.59;;;5.44;75.88
63500;BME280;49654;51.142;14.924;2024-01-06T11:04:47;98464.31;;;5.97;75.17
63500;BME280;49654;51.142;14.924;2024-01-06T11:07:15;98451.91;;;5.92;75.38
63500;BME280;49654;51.142;14.924;2024-01-06T11:09:47;98463.50;;;5.96;75.02
63500;BME280;49654;51.142;14.924;2024-01-06T11:12:17;98464.94;;;5.99;74.43
63500;BME280;49654;51.142;14.924;2024-01-06T11:14:45;98413.41;;;5.66;74.81
63500;BME280;49654;51.142;14.924;2024-01-06T11:17:12;98440.59;;;5.77;74.30
63500;BME280;49654;51.142;14.924;2024-01-06T11:19:44;98447.88;;;5.98;74.28
63500;BME280;49654;51.142;14.924;2024-01-06T11:22:19;98424.53;;;5.83;74.07
63500;BME280;49654;51.142;14.924;2024-01-06T11:24:47;98441.75;;;5.74;74.17
63500;BME280;49654;51.142;14.924;2024-01-06T11:27:17;98432.72;;;5.70;73.94
63500;BME280;49654;51.142;14.924;2024-01-06T11:29:46;98440.94;;;5.74;73.93
63500;BME280;49654;51.142;14.924;2024-01-06T11:32:19;98466.88;;;5.89;73.76
63500;BME280;49654;51.142;14.924;2024-01-06T11:34:48;98342.25;;;5.08;73.89
63500;BME280;49654;51.142;14.924;2024-01-06T11:37:18;98464.44;;;5.55;73.09
63500;BME280;49654;51.142;14.924;2024-01-06T11:39:45;98462.63;;;5.39;74.93
63500;BME280;49654;51.142;14.924;2024-01-06T11:42:13;98371.63;;;4.81;75.18
63500;BME280;49654;51.142;14.924;2024-01-06T11:44:43;98375.47;;;4.69;76.02
63500;BME280;49654;51.142;14.924;2024-01-06T11:47:12;98462.94;;;5.27;75.51
63500;BME280;49654;51.142;14.924;2024-01-06T11:49:44;98460.72;;;5.41;75.52
63500;BME280;49654;51.142;14.924;2024-01-06T11:52:13;98462.03;;;5.53;75.28
63500;BME280;49654;51.142;14.924;2024-01-06T11:54:41;98455.25;;;5.44;74.85
63500;BME280;49654;51.142;14.924;2024-01-06T11:57:08;98418.38;;;5.27;74.85
63500;BME280;49654;51.142;14.924;2024-01-06T11:59:35;98362.81;;;4.92;74.85
63500;BME280;49654;51.142;14.924;2024-01-06T12:02:02;98455.59;;;5.65;74.57
63500;BME280;49654;51.142;14.924;2024-01-06T12:04:31;98473.63;;;5.65;74.29
63500;BME280;49654;51.142;14.924;2024-01-06T12:07:05;98442.69;;;5.49;74.09
63500;BME280;49654;51.142;14.924;2024-01-06T12:09:32;98467.81;;;5.63;73.96
63500;BME280;49654;51.142;14.924;2024-01-06T12:12:03;98450.44;;;5.57;74.24
63500;BME280;49654;51.142;14.924;2024-01-06T12:14:31;98467.16;;;5.53;73.86
63500;BME280;49654;51.142;14.924;2024-01-06T12:16:58;98418.09;;;4.88;74.17
63500;BME280;49654;51.142;14.924;2024-01-06T12:19:30;98435.38;;;5.12;74.90
63500;BME280;49654;51.142;14.924;2024-01-06T12:21:58;98477.28;;;5.38;75.14
63500;BME280;49654;51.142;14.924;2024-01-06T12:24:27;98460.41;;;5.44;74.96
63500;BME280;49654;51.142;14.924;2024-01-06T12:26:55;98462.78;;;5.29;73.33
63500;BME280;49654;51.142;14.924;2024-01-06T12:29:22;98488.56;;;5.45;73.78
63500;BME280;49654;51.142;14.924;2024-01-06T12:31:49;98501.94;;;5.49;74.12
63500;BME280;49654;51.142;14.924;2024-01-06T12:34:16;98495.78;;;5.34;73.92
63500;BME280;49654;51.142;14.924;2024-01-06T12:36:44;98493.88;;;5.44;74.73
63500;BME280;49654;51.142;14.924;2024-01-06T12:39:13;98409.13;;;4.92;74.06
63500;BME280;49654;51.142;14.924;2024-01-06T12:41:40;98490.94;;;5.39;73.71
63500;BME280;49654;51.142;14.924;2024-01-06T12:44:08;98493.25;;;5.58;73.91
63500;BME280;49654;51.142;14.924;2024-01-06T12:46:35;98481.91;;;5.35;73.73
63500;BME280;49654;51.142;14.924;2024-01-06T12:49:02;98482.19;;;5.07;74.37
63500;BME280;49654;51.142;14.924;2024-01-06T12:51:29;98453.19;;;4.89;74.51
63500;BME280;49654;51.142;14.924;2024-01-06T12:53:58;98413.78;;;4.88;74.36
63500;BME280;49654;51.142;14.924;2024-01-06T12:56:25;98503.22;;;5.53;73.32
63500;BME280;49654;51.142;14.924;2024-01-06T12:58:52;98408.66;;;4.88;73.67
63500;BME280;49654;51.142;14.924;2024-01-06T13:01:19;98512.88;;;5.59;73.69